Time;durP1;ratioP1;P1;durP2;ratioP2;P2;SDS_P1;SDS_P2;PMS_P1;PMS_P2;Temp;Humidity;BMP_temperature;BMP_pressure;BME280_temperature;BME280_humidity;BME280_pressure;Samples;Min_cycle;Max_cycle;Signal;HPM_P1;HPM_P2
2022/05/14 00:01:38;;;;;;;10.07;9.17;;;16.90;99.90;;;;;;6257367;28;20470;-61
2022/05/14 00:04:41;;;;;;;9.73;8.73;;;16.90;99.90;;;;;;6261260;28;20482;-61
2022/05/14 00:07:45;;;;;;;8.53;7.83;;;16.90;99.90;;;;;;6263199;23;20983;-63
2022/05/14 00:14:10;;;;;;;10.10;8.83;;;16.80;99.90;;;;;;6260602;28;20449;-64
2022/05/14 00:17:15;;;;;;;12.60;8.40;;;16.70;99.90;;;;;;6261112;28;20927;-64
2022/05/14 00:20:18;;;;;;;13.23;7.80;;;16.60;99.90;;;;;;6251535;28;20445;-65
2022/05/14 00:23:21;;;;;;;7.70;7.00;;;16.60;99.90;;;;;;6262211;28;20507;-64
2022/05/14 00:26:24;;;;;;;7.23;6.50;;;16.60;99.90;;;;;;6269373;28;20477;-64
2022/05/14 00:29:29;;;;;;;7.60;6.90;;;16.60;99.90;;;;;;6275481;28;20469;-64
2022/05/14 00:32:33;;;;;;;8.03;7.23;;;16.50;99.90;;;;;;6275300;28;20488;-64
2022/05/14 00:35:37;;;;;;;7.63;6.97;;;16.50;99.90;;;;;;6275064;28;20470;-64
2022/05/14 00:38:40;;;;;;;6.10;5.57;;;16.50;99.90;;;;;;6274791;28;20481;-64
2022/05/14 05:01:32;;;;;;;10.93;4.53;;;16.20;99.90;;;;;;6286225;23;20941;-61
2022/05/14 05:04:35;;;;;;;4.90;4.23;;;16.40;99.90;;;;;;6104989;29;20821;-63
2022/05/14 05:07:38;;;;;;;5.17;4.23;;;16.50;99.90;;;;;;6118805;29;20484;-64
2022/05/14 05:10:41;;;;;;;4.63;4.00;;;16.70;99.90;;;;;;6150252;29;20485;-63
2022/05/14 05:13:44;;;;;;;5.90;4.37;;;16.90;99.90;;;;;;6131231;29;20488;-64
2022/05/14 05:16:50;;;;;;;5.50;4.57;;;17.00;99.90;;;;;;6128816;29;20494;-64
2022/05/14 05:19:54;;;;;;;4.93;4.10;;;17.20;99.90;;;;;;6129004;29;20472;-64
2022/05/14 05:22:57;;;;;;;5.13;4.20;;;17.30;99.90;;;;;;6152418;29;20471;-63
2022/05/14 05:26:00;;;;;;;4.70;4.30;;;17.30;99.90;;;;;;6129120;29;20475;-63
2022/05/14 05:29:04;;;;;;;5.43;4.93;;;17.30;99.90;;;;;;6152309;29;20459;-63
2022/05/14 05:32:09;;;;;;;5.33;4.40;;;17.40;99.90;;;;;;6129374;29;20494;-64
2022/05/14 05:35:13;;;;;;;8.93;5.50;;;17.50;99.90;;;;;;6130007;29;20452;-62
2022/05/14 05:38:21;;;;;;;5.63;4.93;;;17.60;99.90;;;;;;6133068;29;20467;-62
2022/05/14 05:41:24;;;;;;;5.30;4.70;;;17.90;99.90;;;;;;6127802;29;20470;-62
2022/05/14 05:44:27;;;;;;;13.10;5.40;;;18.10;99.90;;;;;;6153640;29;20542;-63
2022/05/14 05:47:32;;;;;;;8.60;5.07;;;18.40;99.90;;;;;;6133479;29;20558;-63
2022/05/14 05:50:37;;;;;;;11.23;5.43;;;18.80;99.90;;;;;;6133298;29;20796;-62
2022/05/14 05:57:03;;;;;;;7.83;5.80;;;19.90;99.90;;;;;;6141339;29;20268;-63
2022/05/14 06:00:10;;;;;;;8.83;5.60;;;20.80;99.00;;;;;;6147953;29;20298;-63
2022/05/14 06:03:15;;;;;;;7.60;5.90;;;21.40;97.50;;;;;;6151992;28;20231;-62
2022/05/14 06:06:19;;;;;;;8.10;5.80;;;21.60;95.70;;;;;;6180425;28;20318;-61
2022/05/14 06:09:24;;;;;;;7.33;6.63;;;22.10;95.20;;;;;;6180482;28;20313;-63
2022/05/14 06:12:27;;;;;;;6.50;5.33;;;22.50;95.20;;;;;;6180697;28;20231;-63
2022/05/14 06:15:30;;;;;;;7.40;6.23;;;23.20;94.10;;;;;;6180553;28;20230;-63
2022/05/14 06:18:35;;;;;;;6.67;5.97;;;23.90;91.70;;;;;;6180481;28;20321;-62
2022/05/14 06:21:38;;;;;;;5.60;5.10;;;24.40;90.30;;;;;;6180120;28;20237;-63
2022/05/14 06:24:42;;;;;;;9.73;5.70;;;24.80;87.30;;;;;;6180566;28;20250;-64
2022/05/14 06:27:45;;;;;;;6.83;5.50;;;25.30;84.70;;;;;;6180243;28;20667;-65
2022/05/14 06:30:49;;;;;;;7.00;5.30;;;25.50;80.00;;;;;;6181262;28;20230;-65
2022/05/14 06:33:54;;;;;;;6.17;5.57;;;26.20;77.40;;;;;;6180503;28;20234;-66
2022/05/14 06:36:57;;;;;;;5.30;4.83;;;26.80;74.80;;;;;;6180635;28;20238;-65
2022/05/14 06:40:00;;;;;;;7.30;5.40;;;27.60;69.60;;;;;;6179928;28;20234;-65
2022/05/14 06:43:04;;;;;;;7.53;5.80;;;27.50;64.60;;;;;;6180018;28;20552;-65
2022/05/14 06:46:08;;;;;;;8.13;5.40;;;27.10;66.60;;;;;;6175194;28;20238;-64
2022/05/14 06:49:13;;;;;;;5.60;5.00;;;28.00;66.10;;;;;;6178792;28;20241;-64
2022/05/14 06:52:19;;;;;;;5.90;5.50;;;28.60;61.90;;;;;;6179707;28;20244;-66
2022/05/14 06:55:25;;;;;;;6.53;5.77;;;29.10;59.50;;;;;;6179848;28;20226;-64
2022/05/14 06:58:33;;;;;;;5.80;5.27;;;29.60;58.20;;;;;;6179885;28;20240;-66
2022/05/14 07:01:40;;;;;;;7.83;6.27;;;29.30;58.40;;;;;;6179600;28;20242;-66
2022/05/14 07:08:06;;;;;;;7.53;6.83;;;31.00;55.60;;;;;;6196288;28;20356;-65
2022/05/14 07:11:09;;;;;;;6.47;5.87;;;30.70;54.30;;;;;;6203719;28;20205;-62
2022/05/14 07:14:16;;;;;;;7.20;6.10;;;30.80;51.30;;;;;;6202904;28;20645;-66
2022/05/14 07:17:19;;;;;;;6.25;5.57;;;31.70;50.10;;;;;;6202688;28;20556;-63
2022/05/14 07:20:24;;;;;;;9.07;7.55;;;32.20;48.20;;;;;;6202225;28;20240;-63
2022/05/14 07:23:27;;;;;;;7.60;6.90;;;31.10;50.30;;;;;;6202038;28;20688;-63
2022/05/14 07:26:30;;;;;;;7.82;6.97;;;30.60;51.80;;;;;;6202040;28;20662;-63
2022/05/14 07:29:36;;;;;;;7.50;6.90;;;31.50;51.70;;;;;;6201105;28;20221;-63
2022/05/14 07:32:39;;;;;;;7.40;6.57;;;32.30;50.50;;;;;;6201881;28;20236;-63
2022/05/14 07:35:44;;;;;;;8.70;7.82;;;32.10;49.00;;;;;;6201434;28;20236;-63
2022/05/14 07:38:48;;;;;;;8.98;7.70;;;33.00;47.10;;;;;;6201194;28;20233;-63
2022/05/14 07:41:54;;;;;;;9.13;7.80;;;33.90;45.60;;;;;;6201465;28;20236;-63
2022/05/14 07:45:00;;;;;;;7.07;6.15;;;34.90;44.20;;;;;;6201207;28;20225;-63
2022/05/14 07:48:08;;;;;;;7.07;6.47;;;35.10;41.40;;;;;;6202022;28;20225;-63
2022/05/14 07:51:13;;;;;;;7.85;7.15;;;35.00;41.20;;;;;;6193540;28;20229;-62
2022/05/14 07:54:16;;;;;;;7.78;6.88;;;35.60;39.60;;;;;;6202909;28;20233;-62
2022/05/14 07:57:19;;;;;;;6.20;5.70;;;36.10;38.80;;;;;;6202173;28;20248;-62
2022/05/14 08:00:22;;;;;;;7.35;5.80;;;36.00;37.60;;;;;;6201989;28;20666;-62
2022/05/14 08:03:26;;;;;;;6.10;5.47;;;36.10;37.60;;;;;;6202329;28;20229;-62
2022/05/14 08:06:31;;;;;;;5.90;4.88;;;35.30;38.50;;;;;;6202002;28;20244;-62
2022/05/14 08:09:34;;;;;;;6.88;5.10;;;35.40;37.30;;;;;;6201897;28;20528;-63
2022/05/14 08:12:42;;;;;;;5.40;4.90;;;36.10;37.20;;;;;;6201839;28;20732;-62
2022/05/14 08:15:48;;;;;;;5.82;5.30;;;36.90;36.20;;;;;;6202089;28;20233;-62
2022/05/14 08:18:51;;;;;;;5.82;5.25;;;37.00;35.70;;;;;;6202013;28;20237;-62
2022/05/14 08:25:16;;;;;;;6.20;4.55;;;34.50;38.10;;;;;;6206147;28;20233;-64
2022/05/14 08:28:20;;;;;;;5.97;4.35;;;33.50;39.30;;;;;;6201916;28;20248;-63
2022/05/14 08:31:23;;;;;;;4.95;4.55;;;32.70;40.70;;;;;;6201610;28;20305;-63
2022/05/14 08:34:27;;;;;;;5.80;4.57;;;31.90;42.50;;;;;;6201622;28;20233;-63
2022/05/14 08:37:31;;;;;;;5.43;4.95;;;31.20;42.10;;;;;;6201299;28;20248;-63
2022/05/14 08:40:38;;;;;;;5.97;5.47;;;30.30;43.20;;;;;;6201791;28;20251;-63
2022/05/14 08:43:44;;;;;;;5.37;4.87;;;29.70;45.00;;;;;;6201318;28;20221;-63
2022/05/14 08:46:53;;;;;;;5.13;4.30;;;29.20;46.50;;;;;;6201316;28;20233;-62
2022/05/14 08:49:57;;;;;;;9.33;4.57;;;29.00;44.00;;;;;;6201892;28;20252;-64
2022/05/14 08:53:12;;;;;;;5.53;5.00;;;28.20;45.60;;;;;;6192563;28;20213;-65
2022/05/14 08:56:29;;;;;;;5.60;5.10;;;27.70;46.10;;;;;;6202194;28;20221;-67
2022/05/14 08:59:56;;;;;;;8.90;4.00;;;27.50;47.10;;;;;;6201545;28;20564;-66
2022/05/14 09:02:59;;;;;;;6.97;4.43;;;27.20;47.00;;;;;;6201889;28;20234;-66
2022/05/14 09:06:02;;;;;;;5.53;5.03;;;26.70;48.20;;;;;;6201433;28;20225;-65
2022/05/14 09:09:09;;;;;;;4.87;4.37;;;26.90;48.10;;;;;;6201280;28;20225;-65
2022/05/14 09:12:18;;;;;;;4.80;4.37;;;26.70;48.40;;;;;;6202837;28;20764;-65
2022/05/14 09:15:23;;;;;;;6.93;4.80;;;26.50;49.40;;;;;;6205726;28;20243;-65
2022/05/14 09:18:28;;;;;;;4.17;3.87;;;26.20;48.90;;;;;;6205993;28;20375;-66
2022/05/14 09:21:35;;;;;;;4.60;4.23;;;26.20;49.80;;;;;;6205814;28;20225;-66
2022/05/14 09:24:46;;;;;;;5.27;4.63;;;26.30;50.10;;;;;;6205809;28;20239;-66
2022/05/14 09:27:54;;;;;;;5.20;4.60;;;26.10;51.10;;;;;;6205524;28;20237;-66
2022/05/14 09:31:00;;;;;;;5.43;5.03;;;26.00;52.10;;;;;;6203898;28;20642;-64
2022/05/14 09:34:06;;;;;;;7.67;4.80;;;25.70;53.10;;;;;;6205383;28;20229;-66
2022/05/14 09:37:18;;;;;;;5.80;5.23;;;25.80;53.60;;;;;;6181624;28;20230;-64
2022/05/14 09:40:26;;;;;;;5.20;4.80;;;26.00;53.40;;;;;;6196775;28;20554;-65
2022/05/14 09:43:33;;;;;;;6.33;5.20;;;26.10;53.40;;;;;;6205157;28;20669;-65
2022/05/14 09:46:37;;;;;;;4.90;4.43;;;26.00;54.00;;;;;;6205225;28;20241;-64
2022/05/14 09:49:42;;;;;;;5.90;4.57;;;26.10;53.30;;;;;;6205369;28;20271;-65
2022/05/14 09:52:56;;;;;;;6.43;4.87;;;26.50;54.00;;;;;;6193418;28;20368;-66
2022/05/14 09:56:34;;;;;;;6.30;4.83;;;26.90;53.20;;;;;;6202078;28;20264;-64
2022/05/14 10:00:07;;;;;;;8.83;5.30;;;26.80;52.70;;;;;;6204482;28;20237;-64
2022/05/14 10:03:27;;;;;;;8.03;5.23;;;26.80;53.20;;;;;;6200573;28;20597;-66
2022/05/14 10:06:41;;;;;;;5.93;5.33;;;26.90;53.40;;;;;;6204482;28;20563;-64
2022/05/14 10:09:57;;;;;;;5.97;5.50;;;26.90;53.20;;;;;;6204591;28;20269;-65
2022/05/14 10:13:05;;;;;;;5.60;4.53;;;27.20;52.50;;;;;;6205449;28;20233;-65
2022/05/14 10:16:13;;;;;;;4.93;4.53;;;27.10;51.80;;;;;;6204545;28;20541;-66
2022/05/14 10:19:31;;;;;;;4.47;4.07;;;27.00;51.80;;;;;;6204555;28;20232;-65
2022/05/14 10:29:53;;;;;;;5.33;4.93;;;27.40;50.90;;;;;;6203358;28;20224;-66
2022/05/14 10:33:02;;;;;;;6.37;4.30;;;27.20;51.60;;;;;;6202805;28;20793;-66
2022/05/14 10:36:14;;;;;;;5.93;4.50;;;27.10;52.20;;;;;;6203491;28;20217;-65
2022/05/14 10:39:33;;;;;;;5.43;5.03;;;26.50;53.20;;;;;;6203611;28;20232;-65
2022/05/14 10:42:44;;;;;;;5.27;4.77;;;26.30;54.40;;;;;;6198781;28;20552;-66
2022/05/14 10:45:53;;;;;;;5.03;4.63;;;26.10;54.00;;;;;;6203827;28;20682;-66
2022/05/14 10:49:07;;;;;;;7.57;4.77;;;26.20;54.70;;;;;;6201599;28;20729;-64
2022/05/14 10:52:15;;;;;;;5.03;4.63;;;26.30;54.50;;;;;;6197829;28;20705;-64
2022/05/14 10:55:23;;;;;;;5.87;4.93;;;26.40;54.60;;;;;;6202468;28;20218;-64
2022/05/14 10:58:39;;;;;;;8.13;4.83;;;26.60;54.20;;;;;;6201892;28;20232;-64
2022/05/14 11:01:47;;;;;;;4.40;4.00;;;26.90;54.50;;;;;;6197257;28;20233;-64
2022/05/14 11:04:51;;;;;;;5.50;5.00;;;26.80;54.90;;;;;;6202367;28;20221;-65
2022/05/14 11:07:54;;;;;;;9.73;4.80;;;26.50;54.50;;;;;;6201297;28;20225;-65
2022/05/14 11:11:07;;;;;;;4.90;4.40;;;26.40;53.90;;;;;;6201825;28;20232;-65
2022/05/14 11:14:10;;;;;;;4.47;4.03;;;26.10;55.10;;;;;;6200573;28;20648;-65
2022/05/14 11:17:25;;;;;;;8.60;4.50;;;26.10;54.20;;;;;;6201878;28;20312;-65
2022/05/14 11:20:28;;;;;;;5.10;4.73;;;26.30;54.30;;;;;;6200714;28;20237;-65
2022/05/14 11:23:32;;;;;;;6.93;5.40;;;26.30;54.40;;;;;;6200972;28;20241;-66
2022/05/14 11:26:46;;;;;;;6.23;4.43;;;26.30;54.80;;;;;;6201366;28;20244;-65
2022/05/14 11:29:53;;;;;;;5.80;4.83;;;26.50;55.40;;;;;;6202477;28;20231;-65
2022/05/14 11:32:58;;;;;;;5.53;5.13;;;26.80;52.60;;;;;;6202510;28;20232;-65
2022/05/14 11:36:04;;;;;;;4.70;4.17;;;26.70;53.20;;;;;;6200828;28;20229;-65
2022/05/14 11:39:29;;;;;;;5.97;4.93;;;26.60;53.90;;;;;;6200615;28;20236;-65
2022/05/14 11:42:33;;;;;;;7.93;4.57;;;26.40;54.00;;;;;;6200484;28;20225;-64
2022/05/14 11:45:39;;;;;;;4.90;4.53;;;26.30;54.90;;;;;;6200290;28;20225;-64
2022/05/14 11:48:48;;;;;;;5.33;4.83;;;26.40;54.80;;;;;;6199585;28;20549;-64
2022/05/14 11:52:01;;;;;;;5.20;4.50;;;26.50;54.60;;;;;;6199533;28;20221;-64
2022/05/14 11:55:11;;;;;;;5.27;4.77;;;26.60;53.50;;;;;;6200127;28;20558;-66
2022/05/14 11:58:21;;;;;;;6.10;5.50;;;26.70;55.10;;;;;;6200290;28;20244;-65
2022/05/14 12:01:30;;;;;;;5.50;5.10;;;26.40;55.10;;;;;;6199495;28;20239;-64
2022/05/14 12:04:41;;;;;;;6.90;5.30;;;26.50;56.00;;;;;;6197208;28;20554;-65
2022/05/14 12:08:09;;;;;;;4.80;4.40;;;26.60;55.20;;;;;;6186167;28;20537;-66
2022/05/14 12:11:28;;;;;;;4.90;4.50;;;26.80;55.50;;;;;;6201132;28;20225;-64
2022/05/14 12:14:33;;;;;;;5.13;4.70;;;26.80;54.00;;;;;;6198148;28;20244;-66
2022/05/14 12:17:39;;;;;;;4.90;3.90;;;26.70;53.40;;;;;;6201322;28;20526;-64
2022/05/14 12:20:44;;;;;;;4.80;4.40;;;26.50;54.10;;;;;;6200142;28;20221;-64
2022/05/14 12:23:49;;;;;;;5.60;5.20;;;26.60;53.40;;;;;;6200793;28;20225;-63
2022/05/14 12:26:52;;;;;;;4.83;3.80;;;26.60;53.20;;;;;;6200878;28;20235;-66
2022/05/14 12:29:59;;;;;;;5.63;4.30;;;26.70;52.60;;;;;;6200055;28;20592;-64
2022/05/14 12:33:13;;;;;;;4.60;4.20;;;26.70;52.90;;;;;;6199937;28;20245;-67
2022/05/14 12:36:18;;;;;;;6.00;4.80;;;26.90;52.70;;;;;;6203621;28;20237;-65
2022/05/14 12:39:24;;;;;;;4.90;3.87;;;26.90;52.00;;;;;;6202620;28;20233;-66
2022/05/14 12:42:35;;;;;;;5.10;4.30;;;26.80;52.40;;;;;;6202275;28;20240;-65
2022/05/14 12:45:41;;;;;;;5.00;4.60;;;27.00;52.10;;;;;;6202187;28;20225;-64
2022/05/14 12:48:47;;;;;;;6.50;5.20;;;26.90;52.00;;;;;;6202118;28;20707;-65
2022/05/14 12:51:54;;;;;;;6.07;5.00;;;27.00;52.10;;;;;;6203334;28;20325;-65
2022/05/14 12:55:00;;;;;;;4.80;4.30;;;26.80;52.40;;;;;;6202544;28;20274;-64
2022/05/14 12:58:04;;;;;;;7.53;4.30;;;26.90;52.60;;;;;;6201099;28;20233;-65
2022/05/14 13:01:09;;;;;;;6.87;5.57;;;27.00;52.00;;;;;;6200589;28;20229;-63
2022/05/14 13:04:15;;;;;;;5.40;4.50;;;27.00;52.50;;;;;;6200843;28;20233;-64
2022/05/14 13:07:20;;;;;;;5.27;4.77;;;26.90;53.10;;;;;;6201223;28;20649;-65
2022/05/14 13:10:26;;;;;;;5.53;5.10;;;26.70;53.80;;;;;;6169538;28;20341;-66
2022/05/14 13:13:33;;;;;;;5.47;4.30;;;26.40;53.80;;;;;;6188927;28;20252;-64
2022/05/14 13:16:36;;;;;;;5.10;4.23;;;26.50;53.70;;;;;;6200607;28;20236;-64
2022/05/14 13:19:42;;;;;;;5.10;4.60;;;26.20;54.10;;;;;;6200718;28;20303;-66
2022/05/14 13:22:47;;;;;;;6.60;4.63;;;26.00;54.80;;;;;;6200748;28;20243;-65
2022/05/14 13:25:59;;;;;;;4.40;4.10;;;26.00;55.10;;;;;;6200684;28;20229;-65
2022/05/14 13:29:13;;;;;;;5.07;4.57;;;26.00;54.30;;;;;;6200921;28;20715;-66
2022/05/14 13:32:27;;;;;;;6.17;4.30;;;26.10;54.30;;;;;;6200323;28;20233;-65
2022/05/14 13:38:58;;;;;;;4.53;3.97;;;26.30;53.90;;;;;;6200704;28;20308;-65
2022/05/14 13:42:01;;;;;;;4.97;4.57;;;26.10;53.80;;;;;;6200641;28;20666;-64
2022/05/14 13:45:08;;;;;;;5.10;4.70;;;25.80;53.80;;;;;;6200632;28;20228;-64
2022/05/14 13:48:19;;;;;;;4.10;3.80;;;25.70;54.00;;;;;;6200733;28;20244;-66
2022/05/14 13:51:31;;;;;;;5.13;4.63;;;25.70;54.30;;;;;;6200499;28;20247;-64
2022/05/14 13:54:38;;;;;;;6.03;4.60;;;25.90;53.70;;;;;;6200447;28;20230;-65
2022/05/14 13:57:41;;;;;;;6.73;4.50;;;25.90;53.70;;;;;;6201461;28;20230;-65
2022/05/14 14:00:54;;;;;;;5.03;4.33;;;26.00;54.00;;;;;;6204634;28;20244;-64
2022/05/14 14:03:59;;;;;;;7.93;4.23;;;26.00;53.90;;;;;;6204802;28;20554;-65
2022/05/14 14:07:06;;;;;;;5.07;4.63;;;26.00;53.30;;;;;;6204206;28;20227;-65
2022/05/14 14:10:17;;;;;;;4.63;4.20;;;25.90;53.30;;;;;;6203986;28;20229;-64
2022/05/14 14:13:21;;;;;;;6.87;4.40;;;25.80;54.00;;;;;;6198191;28;20392;-64
2022/05/14 14:16:24;;;;;;;6.33;4.03;;;25.90;53.60;;;;;;6203904;28;20713;-64
2022/05/14 14:19:27;;;;;;;5.30;4.17;;;25.90;53.90;;;;;;6204541;28;20237;-64
2022/05/14 14:22:30;;;;;;;9.83;5.50;;;26.00;54.00;;;;;;6204201;28;20685;-64
2022/05/14 14:25:37;;;;;;;5.50;4.00;;;26.10;53.60;;;;;;6204364;28;20735;-64
2022/05/14 14:28:41;;;;;;;4.90;4.37;;;26.20;53.70;;;;;;6204459;28;20233;-63
2022/05/14 14:31:44;;;;;;;7.77;4.53;;;26.20;54.40;;;;;;6204206;28;20237;-65
2022/05/14 14:34:48;;;;;;;5.00;4.50;;;26.00;54.70;;;;;;6203857;28;20225;-63
2022/05/14 14:37:51;;;;;;;5.30;4.70;;;25.80;55.20;;;;;;6203788;28;20248;-65
2022/05/14 14:40:55;;;;;;;4.63;3.93;;;25.90;55.20;;;;;;6207437;28;20226;-63
2022/05/14 14:43:59;;;;;;;4.70;4.30;;;25.90;55.20;;;;;;6205418;28;20230;-64
2022/05/14 14:47:02;;;;;;;4.23;3.93;;;25.70;55.00;;;;;;6203992;28;20229;-64
2022/05/14 14:50:06;;;;;;;5.67;4.20;;;25.70;54.80;;;;;;6204164;28;20225;-67
2022/05/14 14:53:14;;;;;;;5.73;4.33;;;25.80;54.30;;;;;;6204022;28;20228;-65
2022/05/14 14:56:19;;;;;;;6.53;4.60;;;25.90;53.40;;;;;;6203192;28;20323;-65
2022/05/14 14:59:22;;;;;;;8.23;4.30;;;25.90;54.10;;;;;;6203477;28;20237;-66
2022/05/14 15:02:31;;;;;;;5.80;4.70;;;25.80;55.10;;;;;;6203255;28;20203;-65
2022/05/14 15:05:39;;;;;;;7.43;4.57;;;25.80;55.60;;;;;;6203690;28;20696;-65
2022/05/14 15:08:46;;;;;;;5.20;4.80;;;25.90;56.00;;;;;;6202869;28;20234;-65
2022/05/14 15:11:51;;;;;;;5.13;4.07;;;26.10;55.90;;;;;;6203429;28;20233;-63
2022/05/14 15:14:54;;;;;;;4.93;4.53;;;26.10;55.80;;;;;;6206919;28;20235;-64
2022/05/14 15:17:58;;;;;;;6.47;5.13;;;25.90;55.90;;;;;;6197344;28;20241;-65
2022/05/14 15:21:01;;;;;;;6.77;5.17;;;25.80;56.10;;;;;;6203875;28;20221;-66
2022/05/14 15:24:05;;;;;;;6.20;4.27;;;26.00;55.50;;;;;;6203464;28;20236;-66
2022/05/14 15:27:12;;;;;;;5.10;4.70;;;26.00;55.50;;;;;;6203793;28;20229;-66
2022/05/14 15:30:16;;;;;;;11.43;5.00;;;26.10;55.70;;;;;;6202791;28;20236;-65
2022/05/14 15:33:19;;;;;;;7.17;4.93;;;26.20;55.90;;;;;;6202869;28;20221;-65
2022/05/14 15:36:23;;;;;;;9.60;4.37;;;26.00;55.70;;;;;;6203369;28;20237;-65
2022/05/14 15:39:26;;;;;;;5.07;4.27;;;25.90;56.00;;;;;;6202764;28;20225;-66
2022/05/14 15:42:36;;;;;;;4.90;4.50;;;26.00;55.90;;;;;;6202420;28;20689;-65
2022/05/14 15:45:45;;;;;;;6.63;5.13;;;26.00;55.10;;;;;;6202396;28;20666;-65
2022/05/14 15:48:53;;;;;;;8.00;5.53;;;26.00;55.60;;;;;;6202288;28;20233;-66
2022/05/14 15:51:57;;;;;;;5.07;4.50;;;26.10;55.40;;;;;;6202708;28;20229;-65
2022/05/14 15:55:05;;;;;;;5.10;4.50;;;26.10;54.90;;;;;;6202557;28;20239;-63
2022/05/14 15:58:10;;;;;;;5.43;4.93;;;26.10;55.10;;;;;;6202531;28;20248;-63
2022/05/14 16:01:13;;;;;;;4.90;4.43;;;26.10;54.60;;;;;;6202519;28;20312;-64
2022/05/14 16:04:17;;;;;;;5.30;4.87;;;26.20;54.30;;;;;;6202512;28;20232;-63
2022/05/14 16:07:42;;;;;;;6.27;4.90;;;26.20;54.70;;;;;;6202298;28;20241;-65
2022/05/14 16:17:28;;;;;;;6.70;4.50;;;26.40;54.40;;;;;;6202631;28;20250;-64
2022/05/14 16:20:31;;;;;;;5.47;4.50;;;26.30;54.30;;;;;;6201299;28;20228;-64
2022/05/14 16:23:35;;;;;;;6.03;4.67;;;26.20;54.20;;;;;;6202147;28;20220;-64
2022/05/14 16:26:39;;;;;;;4.67;4.27;;;26.20;54.50;;;;;;6202037;28;20229;-64
2022/05/14 16:33:06;;;;;;;5.97;4.60;;;26.00;54.90;;;;;;6216011;28;20255;-64
2022/05/14 16:36:09;;;;;;;5.40;4.90;;;25.90;55.20;;;;;;6210615;28;20290;-65
2022/05/14 16:39:13;;;;;;;5.37;4.90;;;25.90;55.30;;;;;;6206310;28;20237;-65
2022/05/14 16:42:16;;;;;;;5.00;4.57;;;25.90;55.20;;;;;;6205546;28;20224;-64
2022/05/14 16:45:27;;;;;;;4.77;4.37;;;25.90;55.60;;;;;;6202036;28;20221;-65
2022/05/14 16:48:31;;;;;;;4.63;4.10;;;25.80;55.80;;;;;;6201419;28;20232;-64
2022/05/14 16:51:34;;;;;;;5.67;4.77;;;25.70;56.10;;;;;;6201326;28;20613;-64
2022/05/14 16:54:38;;;;;;;6.53;5.87;;;25.70;56.10;;;;;;6200163;28;20229;-65
2022/05/14 16:57:41;;;;;;;6.90;5.20;;;25.70;57.00;;;;;;6200181;28;20244;-64
2022/05/14 17:00:47;;;;;;;7.13;4.63;;;25.60;56.20;;;;;;6199838;28;20236;-64
2022/05/14 17:03:50;;;;;;;6.13;5.10;;;25.60;56.00;;;;;;6199657;28;20229;-63
2022/05/14 17:06:53;;;;;;;5.03;4.53;;;25.40;56.20;;;;;;6198673;28;20577;-63
2022/05/14 17:09:57;;;;;;;4.93;4.30;;;25.40;56.50;;;;;;6199286;28;20256;-63
2022/05/14 17:13:01;;;;;;;4.77;3.93;;;25.40;56.70;;;;;;6199829;28;20697;-62
2022/05/14 17:16:06;;;;;;;5.80;4.80;;;25.40;56.70;;;;;;6200663;28;20237;-63
2022/05/14 17:19:09;;;;;;;4.33;4.03;;;25.30;56.90;;;;;;6201338;28;20238;-63
2022/05/14 17:22:15;;;;;;;6.27;4.90;;;25.20;57.20;;;;;;6200726;28;20251;-66
2022/05/14 17:25:19;;;;;;;5.83;4.07;;;25.10;57.60;;;;;;6192494;28;20611;-64
2022/05/14 17:28:22;;;;;;;14.90;5.63;;;25.00;58.00;;;;;;6200940;28;20233;-63
2022/05/14 17:31:26;;;;;;;6.27;5.77;;;24.90;59.30;;;;;;6201430;28;20240;-63
2022/05/14 17:34:30;;;;;;;6.83;5.50;;;24.70;60.20;;;;;;6204596;28;20694;-63
2022/05/14 17:40:54;;;;;;;5.93;5.30;;;24.40;62.40;;;;;;6205427;28;20230;-64
2022/05/14 17:43:57;;;;;;;5.80;5.30;;;24.30;63.10;;;;;;6205530;28;20579;-64
2022/05/14 17:47:02;;;;;;;11.07;5.03;;;24.20;63.50;;;;;;6205327;28;20705;-63
2022/05/14 17:50:08;;;;;;;5.70;4.80;;;24.20;64.00;;;;;;6205584;28;20296;-64
2022/05/14 17:53:11;;;;;;;7.10;5.47;;;24.20;64.70;;;;;;6205148;28;20316;-63
2022/05/14 17:56:15;;;;;;;5.00;4.60;;;24.00;65.30;;;;;;6206051;28;20232;-62
2022/05/14 17:59:18;;;;;;;5.73;5.20;;;24.00;65.70;;;;;;6205655;28;20230;-63
2022/05/14 18:02:23;;;;;;;6.37;5.57;;;23.90;66.10;;;;;;6206918;28;20296;-63
2022/05/14 18:05:28;;;;;;;7.10;4.67;;;23.80;66.90;;;;;;6205153;28;20206;-64
2022/05/14 18:08:32;;;;;;;6.00;5.50;;;23.70;67.30;;;;;;6204910;28;20233;-63
2022/05/14 18:11:41;;;;;;;6.80;6.00;;;23.50;68.40;;;;;;6204995;28;20252;-63
2022/05/14 18:14:45;;;;;;;5.73;5.23;;;23.40;69.10;;;;;;6204793;28;20226;-63
2022/05/14 18:17:50;;;;;;;6.13;5.73;;;23.40;70.60;;;;;;6204731;28;20229;-64
2022/05/14 18:20:53;;;;;;;7.20;5.20;;;23.40;70.30;;;;;;6204801;28;20700;-63
2022/05/14 18:23:56;;;;;;;6.77;6.00;;;23.30;70.60;;;;;;6205086;28;20230;-64
2022/05/14 18:27:09;;;;;;;6.80;5.70;;;23.10;71.40;;;;;;6201866;28;20244;-63
2022/05/14 18:30:18;;;;;;;9.90;5.70;;;23.10;71.70;;;;;;6206415;28;20229;-62
2022/05/14 18:33:28;;;;;;;6.33;5.83;;;23.10;72.00;;;;;;6204051;28;20529;-62
2022/05/14 18:36:33;;;;;;;6.20;5.60;;;23.10;72.60;;;;;;6204429;28;20666;-63
2022/05/14 18:39:37;;;;;;;9.23;6.20;;;23.10;72.80;;;;;;6204151;28;20238;-63
2022/05/14 18:42:41;;;;;;;6.40;5.80;;;23.10;73.80;;;;;;6204393;28;20229;-63
2022/05/14 18:45:46;;;;;;;6.77;5.60;;;23.10;73.20;;;;;;6203755;28;20343;-63
2022/05/14 18:48:51;;;;;;;8.03;5.90;;;23.10;73.50;;;;;;6204018;28;20237;-63
2022/05/14 18:51:54;;;;;;;6.37;5.80;;;23.10;74.60;;;;;;6203477;28;20244;-61
2022/05/14 18:54:57;;;;;;;6.80;5.33;;;23.00;74.00;;;;;;6203570;28;20344;-63
2022/05/14 18:58:00;;;;;;;5.80;5.20;;;23.00;74.50;;;;;;6203434;28;20229;-61
2022/05/14 19:01:04;;;;;;;7.20;6.50;;;22.90;74.80;;;;;;6203268;28;20234;-62
2022/05/14 19:07:29;;;;;;;5.70;5.20;;;22.80;75.80;;;;;;6203120;28;20592;-62
2022/05/14 19:10:32;;;;;;;5.97;5.00;;;22.80;76.50;;;;;;6203585;28;20236;-62
2022/05/14 19:13:36;;;;;;;6.73;6.17;;;22.70;76.70;;;;;;6203185;28;20226;-61
2022/05/14 19:16:40;;;;;;;5.53;5.13;;;22.70;77.30;;;;;;6203002;28;20234;-60
2022/05/14 19:19:45;;;;;;;10.13;5.53;;;22.60;77.20;;;;;;6203135;28;20230;-60
2022/05/14 19:22:48;;;;;;;6.07;5.50;;;22.50;77.60;;;;;;6203325;28;20583;-62
2022/05/14 19:25:51;;;;;;;5.57;5.07;;;22.50;78.60;;;;;;6201696;28;20229;-63
2022/05/14 19:28:55;;;;;;;6.90;6.07;;;22.40;78.80;;;;;;6201874;28;20237;-61
2022/05/14 19:31:58;;;;;;;5.40;5.00;;;22.30;79.20;;;;;;6197859;28;20234;-61
2022/05/14 19:35:03;;;;;;;5.97;5.37;;;22.20;79.00;;;;;;6202221;28;20233;-62
2022/05/14 19:38:13;;;;;;;5.37;4.93;;;22.10;78.40;;;;;;6201688;28;20245;-63
2022/05/14 19:41:20;;;;;;;6.80;4.90;;;22.00;77.70;;;;;;6202826;28;20210;-63
2022/05/14 19:44:33;;;;;;;5.97;5.37;;;21.90;77.40;;;;;;6202685;28;20216;-63
2022/05/14 19:47:36;;;;;;;5.77;5.23;;;21.80;77.50;;;;;;6202710;28;20234;-63
2022/05/14 19:50:45;;;;;;;7.57;4.93;;;21.70;77.30;;;;;;6202949;28;20304;-63
2022/05/14 19:53:49;;;;;;;5.37;4.87;;;21.60;76.90;;;;;;6202151;28;20729;-63
2022/05/14 19:56:53;;;;;;;5.63;5.13;;;21.60;77.10;;;;;;6201792;28;20234;-63
2022/05/14 19:59:57;;;;;;;7.20;5.60;;;21.50;77.10;;;;;;6202204;28;20252;-63
2022/05/14 20:03:00;;;;;;;5.27;4.53;;;21.40;77.10;;;;;;6202512;28;20340;-63
2022/05/14 20:06:05;;;;;;;5.80;5.20;;;21.30;76.80;;;;;;6201989;28;20563;-62
2022/05/14 20:09:10;;;;;;;6.20;4.50;;;21.30;76.40;;;;;;6202064;28;20226;-62
2022/05/14 20:12:13;;;;;;;5.60;5.20;;;21.20;76.50;;;;;;6202020;28;20769;-63
2022/05/14 20:15:16;;;;;;;4.33;3.90;;;21.10;76.80;;;;;;6201756;28;20570;-64
2022/05/14 20:21:42;;;;;;;5.93;4.57;;;21.10;76.70;;;;;;6202132;28;20234;-63
2022/05/14 20:24:45;;;;;;;5.27;4.87;;;21.10;76.80;;;;;;6202016;28;20240;-63
2022/05/14 20:27:49;;;;;;;5.97;5.37;;;21.00;76.90;;;;;;6201719;28;20244;-63
2022/05/14 20:30:53;;;;;;;4.70;4.40;;;20.90;76.90;;;;;;6201826;28;20221;-62
2022/05/14 20:33:56;;;;;;;4.73;4.43;;;20.90;77.70;;;;;;6201482;28;20701;-62
2022/05/14 20:37:01;;;;;;;4.97;4.43;;;20.90;77.00;;;;;;6192388;28;20573;-63
2022/05/14 20:40:05;;;;;;;4.40;4.00;;;20.80;77.00;;;;;;6201557;28;20237;-63
2022/05/14 20:43:09;;;;;;;5.97;4.73;;;20.80;77.20;;;;;;6201401;28;20251;-64
2022/05/14 20:46:13;;;;;;;4.93;4.47;;;20.80;77.30;;;;;;6201229;28;20229;-62
2022/05/14 20:49:16;;;;;;;5.37;4.40;;;20.80;77.10;;;;;;6201247;28;20229;-61
2022/05/14 20:52:20;;;;;;;6.13;5.30;;;20.70;77.10;;;;;;6201447;28;20678;-61
2022/05/14 20:55:25;;;;;;;6.33;4.60;;;20.70;77.00;;;;;;6201154;28;20230;-63
2022/05/14 20:58:29;;;;;;;8.43;4.87;;;20.70;77.00;;;;;;6200951;28;20249;-63
2022/05/14 21:01:32;;;;;;;5.20;4.70;;;20.60;77.10;;;;;;6200902;28;20240;-63
2022/05/14 21:04:35;;;;;;;11.53;5.80;;;20.60;77.30;;;;;;6201002;28;20229;-63
2022/05/14 21:07:41;;;;;;;7.30;5.27;;;20.60;77.40;;;;;;6201722;28;20675;-63
2022/05/14 21:10:46;;;;;;;8.43;4.60;;;20.50;77.40;;;;;;6206148;28;20238;-62